Portada
METAR-TAF:

METAR-TAF

Aeroports :

Chichén Itzá, Mèxic

latitud: 20-38-30N, longitud: 088-26-58W, altitud: 31 m

Observació

L'informe es va fer fa 5 hores i 1 minuts, a les 20:46 UTC
Vent 9 kt del Sud-Oest
Temperatura 35°C
Humitat 39%
Pressió 1011 hPa
Visibilitat: 16.1 km
Escasses núvols a una alçada de 2000 ft

METAR: MMCT 162046Z 22009KT 10SM FEW020 35/19 A2986 RMK 8/100 CI

Hora: 20:47 (01:47 UTC)


TAF: manca

Observacions i pronòstics meteorològics de més de 4000 aeroports (METAR i TAF).

Les estacions disponibles són els punts grocs i vermells al mapa.

Posi el ratolí al punt desitjat per veure el nom de l'estació.

Feu clic per veure les observacions i els pronòstics meteorològics.

Per canviar el mapa: feu clic els botons verds amb una creu de color negre per apropar; al botó verd amb un guió per allunyar la imatge; o en les fletxes verdes per a mapes adjacents.


METAR-TAF: